createdAt,value
2018-07-06T00:00:50.102Z,4.85
2018-07-06T00:03:37.014Z,4.35
2018-07-06T00:06:23.728Z,4.60
2018-07-06T00:09:11.235Z,3.95
2018-07-06T00:11:58.068Z,4.07
2018-07-06T00:14:44.809Z,3.75
2018-07-06T00:17:31.473Z,3.67
2018-07-06T00:20:18.253Z,3.95
2018-07-06T00:23:04.913Z,3.17
2018-07-06T00:25:52.341Z,3.60
2018-07-06T00:28:38.914Z,3.55
2018-07-06T00:31:25.526Z,3.95
2018-07-06T00:34:12.465Z,3.90
2018-07-06T00:36:58.938Z,3.87
2018-07-06T00:39:45.707Z,3.67
2018-07-06T00:42:32.434Z,3.62
2018-07-06T00:45:19.077Z,3.47
2018-07-06T00:48:06.479Z,3.37
2018-07-06T00:50:53.279Z,3.90
2018-07-06T00:53:39.958Z,3.45
2018-07-06T00:56:26.622Z,3.80
2018-07-06T00:59:13.930Z,3.90
2018-07-06T01:02:00.688Z,3.40
2018-07-06T01:04:47.358Z,3.78
2018-07-06T01:07:34.132Z,4.15
2018-07-06T01:10:20.719Z,4.00
2018-07-06T01:13:07.370Z,4.05
2018-07-06T01:15:54.037Z,3.70
2018-07-06T01:18:40.781Z,4.25
2018-07-06T01:21:27.525Z,3.75
2018-07-06T01:24:14.210Z,4.35
2018-07-06T01:27:01.002Z,4.07
2018-07-06T01:29:47.545Z,5.00
2018-07-06T01:32:34.306Z,4.22
2018-07-06T01:35:21.021Z,5.55
2018-07-06T01:38:07.672Z,5.50
2018-07-06T01:40:54.264Z,5.40
2018-07-06T01:43:41.650Z,5.43
2018-07-06T01:46:28.469Z,5.95
2018-07-06T01:49:14.984Z,6.05
2018-07-06T01:52:01.661Z,5.22
2018-07-06T01:54:48.520Z,5.78
2018-07-06T01:57:35.937Z,5.72
2018-07-06T02:00:22.776Z,6.15
2018-07-06T02:03:09.549Z,4.90
2018-07-06T02:05:56.254Z,5.10
2018-07-06T02:08:42.747Z,4.95
2018-07-06T02:11:29.334Z,4.25
2018-07-06T02:14:16.073Z,4.25
2018-07-06T02:17:02.694Z,4.78
2018-07-06T02:19:49.465Z,4.25
2018-07-06T02:22:36.215Z,5.30
2018-07-06T02:25:22.943Z,4.87
2018-07-06T02:28:09.689Z,5.10
2018-07-06T02:30:56.427Z,4.60
2018-07-06T02:33:43.046Z,4.85
2018-07-06T02:36:30.461Z,4.68
2018-07-06T02:39:17.972Z,5.00
2018-07-06T02:42:04.900Z,5.07
2018-07-06T02:44:51.613Z,6.37
2018-07-06T02:47:39.142Z,5.45
2018-07-06T02:50:25.733Z,5.95
2018-07-06T02:53:12.221Z,5.95
2018-07-06T02:55:58.937Z,5.75
2018-07-06T02:58:45.573Z,4.60
2018-07-06T03:01:32.885Z,5.53
2018-07-06T03:04:19.387Z,4.37
2018-07-06T03:07:06.922Z,5.32
2018-07-06T03:09:54.330Z,5.30
2018-07-06T03:12:41.015Z,5.60
2018-07-06T03:15:27.643Z,5.62
2018-07-06T03:18:14.440Z,5.75
2018-07-06T03:21:01.243Z,5.55
2018-07-06T03:23:48.066Z,5.28
2018-07-06T03:26:34.715Z,5.12
2018-07-06T03:29:21.446Z,6.28
2018-07-06T03:32:07.907Z,5.90
2018-07-06T03:34:54.587Z,5.78
2018-07-06T03:37:41.218Z,6.28
2018-07-06T03:40:28.690Z,6.05
2018-07-06T03:43:15.452Z,7.22
2018-07-06T03:46:02.760Z,6.70
2018-07-06T03:48:49.536Z,7.10
2018-07-06T03:51:36.335Z,7.30
2018-07-06T03:54:23.158Z,6.40
2018-07-06T03:57:09.765Z,6.32
2018-07-06T03:59:56.590Z,6.75
2018-07-06T04:02:43.305Z,7.87
2018-07-06T04:05:30.007Z,8.00
2018-07-06T04:08:16.699Z,7.60
2018-07-06T04:11:03.356Z,8.43
2018-07-06T04:13:49.987Z,7.70
2018-07-06T04:16:36.595Z,9.60
2018-07-06T04:19:23.340Z,9.77
2018-07-06T04:22:10.086Z,8.73
2018-07-06T04:24:57.585Z,9.43
2018-07-06T04:27:44.082Z,9.65
2018-07-06T04:30:30.753Z,11.75
2018-07-06T04:33:17.543Z,8.63
2018-07-06T04:36:04.203Z,9.30
2018-07-06T04:38:50.996Z,10.40
2018-07-06T04:41:38.433Z,8.38
2018-07-06T04:44:25.952Z,10.18
2018-07-06T04:47:12.806Z,10.02
2018-07-06T04:49:59.571Z,12.02
2018-07-06T04:52:47.195Z,9.52
2018-07-06T04:55:34.708Z,9.23
2018-07-06T04:58:21.333Z,10.40
2018-07-06T05:01:08.855Z,9.45
2018-07-06T05:03:56.218Z,12.80
2018-07-06T05:06:42.847Z,10.15
2018-07-06T05:09:29.401Z,11.40
2018-07-06T05:12:16.193Z,11.07
2018-07-06T05:15:02.981Z,10.70
2018-07-06T05:17:49.605Z,12.82
2018-07-06T05:20:36.309Z,12.43
2018-07-06T05:23:23.084Z,10.55
2018-07-06T05:26:09.943Z,13.30
2018-07-06T05:28:56.558Z,11.68
2018-07-06T05:31:43.951Z,11.90
2018-07-06T05:34:30.685Z,10.77
2018-07-06T05:37:17.540Z,10.32
2018-07-06T05:40:04.327Z,11.68
2018-07-06T05:42:50.845Z,11.60
2018-07-06T05:45:37.692Z,10.65
2018-07-06T05:48:24.202Z,11.80
2018-07-06T05:51:10.820Z,12.35
2018-07-06T05:53:58.258Z,12.50
2018-07-06T05:56:44.950Z,12.20
2018-07-06T05:59:31.680Z,12.73
2018-07-06T06:02:18.206Z,12.00
2018-07-06T06:05:04.865Z,12.23
2018-07-06T06:07:32.969Z,12.15
2018-07-06T06:10:01.809Z,10.93
2018-07-06T06:12:30.651Z,11.73
2018-07-06T06:14:59.516Z,12.02
2018-07-06T06:17:29.108Z,12.32
2018-07-06T06:19:57.963Z,11.45
2018-07-06T06:22:26.799Z,12.30
2018-07-06T06:24:56.398Z,11.38
2018-07-06T06:27:25.275Z,11.35
2018-07-06T06:29:54.083Z,12.32
2018-07-06T06:32:23.674Z,12.73
2018-07-06T06:34:52.521Z,12.55
2018-07-06T06:37:21.369Z,11.93
2018-07-06T06:39:50.224Z,11.35
2018-07-06T06:42:19.060Z,11.30
2018-07-06T06:44:47.957Z,11.35
2018-07-06T06:47:16.768Z,10.73
2018-07-06T06:49:45.627Z,11.27
2018-07-06T06:52:14.475Z,11.25
2018-07-06T06:54:43.314Z,11.35
2018-07-06T06:57:12.162Z,12.07
2018-07-06T06:59:41.050Z,12.18
2018-07-06T07:02:09.913Z,12.43
2018-07-06T07:04:38.797Z,14.20
2018-07-06T07:07:07.652Z,11.75
2018-07-06T07:09:37.246Z,11.57
2018-07-06T07:12:07.089Z,11.93
2018-07-06T07:14:35.696Z,10.93
2018-07-06T07:17:04.532Z,12.45
2018-07-06T07:19:33.374Z,11.18
2018-07-06T07:22:02.226Z,9.93
2018-07-06T07:24:31.083Z,10.27
2018-07-06T07:26:59.924Z,10.02
2018-07-06T07:29:28.772Z,9.35
2018-07-06T07:31:57.633Z,10.05
2018-07-06T07:34:26.491Z,10.13
2018-07-06T07:36:55.370Z,9.05
2018-07-06T07:39:24.213Z,8.80
2018-07-06T07:41:53.059Z,9.10
2018-07-06T07:44:21.910Z,9.10
2018-07-06T07:46:50.761Z,9.55
2018-07-06T07:49:19.670Z,9.73
2018-07-06T07:54:39.707Z,11.00
2018-07-06T07:57:08.514Z,9.45
2018-07-06T07:59:38.090Z,8.50
2018-07-06T08:02:06.950Z,8.27
2018-07-06T08:04:35.787Z,9.90
2018-07-06T08:07:04.644Z,9.25
2018-07-06T08:09:33.509Z,8.70
2018-07-06T08:12:02.370Z,8.57
2018-07-06T08:14:31.246Z,7.40
2018-07-06T08:17:00.054Z,6.82
2018-07-06T08:19:28.893Z,6.40
2018-07-06T08:21:57.729Z,6.10
2018-07-06T08:24:26.605Z,4.85
2018-07-06T08:26:56.039Z,5.00
2018-07-06T08:29:24.877Z,4.70
2018-07-06T08:31:53.729Z,5.50
2018-07-06T08:34:37.240Z,5.90
2018-07-06T08:39:53.339Z,5.90
2018-07-06T08:42:22.126Z,5.70
2018-07-06T08:44:50.980Z,5.67
2018-07-06T08:47:19.802Z,5.70
2018-07-06T08:49:49.381Z,5.00
2018-07-06T08:52:18.222Z,4.70
2018-07-06T08:54:47.123Z,4.78
2018-07-06T08:57:15.915Z,4.60
2018-07-06T08:59:44.773Z,4.55
2018-07-06T09:02:13.608Z,4.18
2018-07-06T09:04:42.514Z,3.95
2018-07-06T09:07:12.326Z,3.50
2018-07-06T09:09:41.316Z,3.97
2018-07-06T09:12:10.169Z,3.92
2018-07-06T09:14:39.013Z,3.05
2018-07-06T09:17:07.855Z,3.30
2018-07-06T09:19:36.750Z,3.62
2018-07-06T09:22:05.544Z,3.22
2018-07-06T09:24:34.379Z,3.20
2018-07-06T09:27:03.498Z,2.47
2018-07-06T09:29:32.059Z,2.20
2018-07-06T09:32:00.899Z,2.78
2018-07-06T09:34:29.751Z,2.45
2018-07-06T09:36:59.328Z,2.42
2018-07-06T09:39:28.172Z,2.50
2018-07-06T09:41:57.013Z,2.47
2018-07-06T09:44:25.847Z,2.75
2018-07-06T09:46:54.695Z,2.50
2018-07-06T09:49:23.548Z,2.58
2018-07-06T09:51:52.382Z,2.83
2018-07-06T09:54:21.223Z,2.70
2018-07-06T09:56:50.064Z,2.97
2018-07-06T09:59:18.904Z,2.90
2018-07-06T10:01:47.739Z,3.17
2018-07-06T10:04:17.367Z,2.65
2018-07-06T10:06:46.756Z,2.00
2018-07-06T10:09:15.602Z,1.95
2018-07-06T10:11:44.450Z,2.17
2018-07-06T10:14:13.281Z,2.12
2018-07-06T10:16:42.113Z,2.78
2018-07-06T10:19:11.699Z,2.62
2018-07-06T10:21:40.551Z,2.47
2018-07-06T10:24:09.390Z,2.85
2018-07-06T10:26:38.231Z,2.78
2018-07-06T10:29:07.093Z,3.50
2018-07-06T10:31:35.934Z,2.30
2018-07-06T10:34:04.780Z,3.17
2018-07-06T10:36:33.626Z,2.58
2018-07-06T10:39:02.470Z,3.37
2018-07-06T10:41:31.338Z,2.30
2018-07-06T10:44:00.178Z,2.55
2018-07-06T10:46:29.007Z,2.20
2018-07-06T10:48:58.587Z,2.40
2018-07-06T10:51:27.448Z,2.60
2018-07-06T10:53:56.273Z,2.40
2018-07-06T10:56:25.119Z,3.05
2018-07-06T10:58:53.947Z,3.40
2018-07-06T11:01:22.803Z,2.22
2018-07-06T11:03:51.645Z,2.75
2018-07-06T11:06:21.222Z,2.42
2018-07-06T11:08:50.085Z,1.90
2018-07-06T11:11:18.909Z,2.20
2018-07-06T11:13:47.753Z,1.87
2018-07-06T11:16:16.607Z,2.10
2018-07-06T11:18:45.451Z,1.70
2018-07-06T11:21:14.292Z,1.85
2018-07-06T11:23:43.135Z,2.22
2018-07-06T11:26:11.998Z,1.70
2018-07-06T11:28:40.845Z,1.73
2018-07-06T11:31:10.432Z,2.20
2018-07-06T11:33:39.268Z,2.40
2018-07-06T11:36:08.129Z,3.22
2018-07-06T11:38:36.974Z,2.90
2018-07-06T11:41:05.806Z,1.70
2018-07-06T11:43:35.394Z,1.67
2018-07-06T11:46:04.255Z,1.43
2018-07-06T11:48:33.100Z,1.40
2018-07-06T11:51:01.931Z,1.30
2018-07-06T11:53:30.770Z,1.60
2018-07-06T11:56:00.392Z,1.65
2018-07-06T11:58:29.218Z,1.80
2018-07-06T12:00:58.080Z,1.70
2018-07-06T12:03:27.635Z,1.70
2018-07-06T12:05:56.473Z,1.80
2018-07-06T12:08:25.319Z,1.48
2018-07-06T12:10:54.151Z,1.50
2018-07-06T12:13:22.993Z,1.60
2018-07-06T12:15:51.836Z,1.40
2018-07-06T12:18:20.696Z,1.37
2018-07-06T12:20:50.290Z,1.50
2018-07-06T12:23:19.135Z,1.50
2018-07-06T12:25:47.974Z,1.30
2018-07-06T12:28:17.565Z,1.50
2018-07-06T12:30:46.420Z,1.48
2018-07-06T12:33:15.259Z,1.15
2018-07-06T12:35:44.354Z,1.30
2018-07-06T12:38:13.939Z,1.95
2018-07-06T12:40:42.773Z,1.60
2018-07-06T12:43:11.619Z,1.60
2018-07-06T12:45:40.455Z,1.80
2018-07-06T12:48:09.319Z,1.70
2018-07-06T12:50:38.895Z,1.75
2018-07-06T12:53:07.759Z,1.60
2018-07-06T12:55:36.604Z,1.45
2018-07-06T12:58:06.190Z,1.52
2018-07-06T13:00:35.038Z,1.58
2018-07-06T13:03:03.874Z,1.70
2018-07-06T13:05:32.739Z,1.83
2018-07-06T13:08:01.577Z,1.70
2018-07-06T13:10:31.493Z,1.80
2018-07-06T13:13:00.013Z,1.80
2018-07-06T13:15:28.865Z,1.65
2018-07-06T13:17:58.473Z,1.52
2018-07-06T13:20:28.055Z,1.83
2018-07-06T13:22:56.896Z,1.60
2018-07-06T13:25:25.744Z,1.90
2018-07-06T13:27:54.579Z,1.60
2018-07-06T13:30:23.411Z,1.98
2018-07-06T13:32:52.249Z,2.30
2018-07-06T13:35:21.081Z,2.20
2018-07-06T13:37:49.931Z,2.33
2018-07-06T13:40:18.772Z,2.70
2018-07-06T13:42:47.610Z,2.60
2018-07-06T13:45:16.445Z,2.80
2018-07-06T13:47:45.285Z,2.70
2018-07-06T13:50:14.128Z,2.60
2018-07-06T13:52:42.977Z,2.97
2018-07-06T13:55:11.825Z,3.08
2018-07-06T13:57:41.402Z,2.78
2018-07-06T14:00:10.229Z,3.07
2018-07-06T14:02:39.814Z,2.60
2018-07-06T14:05:08.657Z,2.75
2018-07-06T14:07:37.504Z,2.53
2018-07-06T14:10:06.333Z,2.60
2018-07-06T14:12:35.175Z,3.00
2018-07-06T14:15:05.813Z,3.10
2018-07-06T14:17:34.657Z,3.20
2018-07-06T14:20:03.507Z,3.15
2018-07-06T14:22:32.403Z,2.70
2018-07-06T14:25:01.192Z,2.97
2018-07-06T14:27:30.027Z,3.30
2018-07-06T14:29:58.876Z,2.92
2018-07-06T14:32:27.730Z,3.05
2018-07-06T14:34:56.575Z,3.00
2018-07-06T14:37:25.454Z,3.30
2018-07-06T14:39:55.009Z,3.20
2018-07-06T14:42:23.856Z,2.80
2018-07-06T14:44:52.700Z,3.47
2018-07-06T14:47:21.627Z,3.42
2018-07-06T14:49:50.398Z,3.58
2018-07-06T14:52:19.246Z,3.30
2018-07-06T14:54:48.092Z,3.47
2018-07-06T14:57:16.933Z,3.50
2018-07-06T14:59:45.797Z,2.78
2018-07-06T15:02:14.635Z,2.70
2018-07-06T15:04:43.488Z,3.30
2018-07-06T15:07:12.332Z,3.47
2018-07-06T15:09:41.184Z,3.70
2018-07-06T15:12:10.029Z,3.10
2018-07-06T15:14:38.867Z,3.40
2018-07-06T15:17:07.716Z,3.28
2018-07-06T15:19:36.576Z,4.13
2018-07-06T15:22:05.429Z,5.90
2018-07-06T15:24:34.278Z,4.30
2018-07-06T15:27:03.120Z,3.80
2018-07-06T15:29:31.957Z,4.20
2018-07-06T15:32:00.792Z,4.50
2018-07-06T15:34:30.378Z,4.10
2018-07-06T15:36:59.218Z,3.60
2018-07-06T15:39:28.808Z,3.58
2018-07-06T15:41:58.394Z,3.40
2018-07-06T15:44:27.842Z,3.72
2018-07-06T15:46:56.697Z,3.75
2018-07-06T15:49:25.553Z,4.43
2018-07-06T15:51:54.407Z,4.27
2018-07-06T15:54:23.272Z,4.60
2018-07-06T15:56:52.126Z,4.45
2018-07-06T15:59:20.963Z,4.47
2018-07-06T16:01:49.809Z,4.32
2018-07-06T16:04:18.645Z,4.60
2018-07-06T16:06:47.494Z,6.30
2018-07-06T16:09:16.335Z,5.15
2018-07-06T16:11:45.169Z,6.03
2018-07-06T16:14:14.211Z,6.35
2018-07-06T16:16:42.848Z,6.47
2018-07-06T16:19:12.601Z,5.70
2018-07-06T16:21:41.724Z,6.95
2018-07-06T16:24:10.574Z,7.18
2018-07-06T16:26:39.422Z,6.70
2018-07-06T16:29:08.843Z,7.43
2018-07-06T16:31:38.461Z,7.37
2018-07-06T16:34:07.872Z,7.35
2018-07-06T16:36:36.711Z,6.25
2018-07-06T16:39:05.553Z,5.75
2018-07-06T16:41:34.403Z,5.25
2018-07-06T16:44:03.326Z,5.82
2018-07-06T16:46:32.099Z,6.60
2018-07-06T16:49:01.686Z,8.27
2018-07-06T16:51:30.534Z,9.60
2018-07-06T16:53:59.378Z,10.33
2018-07-06T16:56:28.957Z,9.18
2018-07-06T16:58:57.794Z,9.32
2018-07-06T17:01:26.637Z,9.57
2018-07-06T17:03:55.493Z,9.95
2018-07-06T17:06:24.341Z,10.75
2018-07-06T17:08:53.938Z,10.55
2018-07-06T17:11:22.842Z,10.35
2018-07-06T17:13:51.700Z,11.10
2018-07-06T17:16:20.675Z,11.35
2018-07-06T17:18:49.366Z,9.52
2018-07-06T17:21:18.215Z,10.27
2018-07-06T17:23:47.808Z,9.80
2018-07-06T17:26:17.391Z,9.57
2018-07-06T17:28:46.229Z,8.23
2018-07-06T17:31:15.067Z,9.25
2018-07-06T17:33:43.901Z,7.80
2018-07-06T17:36:12.736Z,7.75
2018-07-06T17:38:41.571Z,7.57
2018-07-06T17:41:11.279Z,6.60
2018-07-06T17:43:39.997Z,7.78
2018-07-06T17:46:08.839Z,7.22
2018-07-06T17:48:37.678Z,6.78
2018-07-06T17:51:06.516Z,7.53
2018-07-06T17:53:36.102Z,7.90
2018-07-06T17:56:04.953Z,7.87
2018-07-06T17:58:33.799Z,8.25
2018-07-06T18:01:02.651Z,8.30
2018-07-06T18:03:31.489Z,8.35
2018-07-06T18:06:00.342Z,9.07
2018-07-06T18:08:29.187Z,8.88
2018-07-06T18:10:58.030Z,8.25
2018-07-06T18:13:26.893Z,8.43
2018-07-06T18:15:55.728Z,8.98
2018-07-06T18:18:24.592Z,8.07
2018-07-06T18:20:53.443Z,8.18
2018-07-06T18:23:23.093Z,8.43
2018-07-06T18:25:51.883Z,8.40
2018-07-06T18:28:20.720Z,8.60
2018-07-06T18:30:50.323Z,7.55
2018-07-06T18:33:19.161Z,8.30
2018-07-06T18:35:48.012Z,8.43
2018-07-06T18:38:17.579Z,7.82
2018-07-06T18:40:46.419Z,7.55
2018-07-06T18:43:15.271Z,7.85
2018-07-06T18:45:44.112Z,8.25
2018-07-06T18:48:13.707Z,8.27
2018-07-06T18:50:42.539Z,7.68
2018-07-06T18:53:11.380Z,7.90
2018-07-06T18:55:40.231Z,6.93
2018-07-06T18:58:09.062Z,7.80
2018-07-06T19:00:37.895Z,7.25
2018-07-06T19:03:07.485Z,7.45
2018-07-06T19:05:36.331Z,7.72
2018-07-06T19:08:05.180Z,8.75
2018-07-06T19:10:34.016Z,7.30
2018-07-06T19:13:02.861Z,7.50
2018-07-06T19:15:31.695Z,7.85
2018-07-06T19:18:00.563Z,7.50
2018-07-06T19:20:29.421Z,8.57
2018-07-06T19:22:58.277Z,8.52
2018-07-06T19:25:27.126Z,6.95
2018-07-06T19:27:55.969Z,7.05
2018-07-06T19:30:24.827Z,7.00
2018-07-06T19:32:53.662Z,6.95
2018-07-06T19:35:22.526Z,7.32
2018-07-06T19:37:52.120Z,7.10
2018-07-06T19:40:20.972Z,7.43
2018-07-06T19:42:49.813Z,6.80
2018-07-06T19:45:18.652Z,6.80
2018-07-06T19:47:47.502Z,6.62
2018-07-06T19:50:16.357Z,6.97
2018-07-06T19:52:45.212Z,6.35
2018-07-06T19:55:14.140Z,6.70
2018-07-06T19:57:42.898Z,6.30
2018-07-06T20:00:11.795Z,6.15
2018-07-06T20:02:40.641Z,6.53
2018-07-06T20:05:09.478Z,5.80
2018-07-06T20:07:38.327Z,5.55
2018-07-06T20:10:07.173Z,5.60
2018-07-06T20:12:36.748Z,6.40
2018-07-06T20:15:05.590Z,6.30
2018-07-06T20:17:34.435Z,5.68
2018-07-06T20:20:03.277Z,6.20
2018-07-06T20:22:32.111Z,5.65
2018-07-06T20:25:00.984Z,5.50
2018-07-06T20:27:29.796Z,5.60
2018-07-06T20:29:58.640Z,5.18
2018-07-06T20:32:27.494Z,5.60
2018-07-06T20:34:56.328Z,5.43
2018-07-06T20:37:25.194Z,5.43
2018-07-06T20:39:54.031Z,5.10
2018-07-06T20:42:22.921Z,5.07
2018-07-06T20:44:51.740Z,5.07
2018-07-06T20:47:20.588Z,5.53
2018-07-06T20:49:49.438Z,5.68
2018-07-06T20:52:18.285Z,5.57
2018-07-06T20:54:47.141Z,5.57
2018-07-06T20:57:15.978Z,5.50
2018-07-06T20:59:45.579Z,5.35
2018-07-06T21:02:14.432Z,5.75
2018-07-06T21:04:43.320Z,6.00
2018-07-06T21:07:12.126Z,5.45
2018-07-06T21:09:40.965Z,5.50
2018-07-06T21:12:09.856Z,5.07
2018-07-06T21:14:39.469Z,5.00
2018-07-06T21:17:08.342Z,6.40
2018-07-06T21:19:37.938Z,6.37
2018-07-06T21:22:06.805Z,5.90
2018-07-06T21:24:35.630Z,6.35
2018-07-06T21:27:04.481Z,5.65
2018-07-06T21:29:33.306Z,5.60
2018-07-06T21:32:02.160Z,6.05
2018-07-06T21:34:31.032Z,6.60
2018-07-06T21:36:59.870Z,6.40
2018-07-06T21:39:28.731Z,5.95
2018-07-06T21:41:57.576Z,6.22
2018-07-06T21:44:26.416Z,6.30
2018-07-06T21:46:55.273Z,6.53
2018-07-06T21:49:24.159Z,7.20
2018-07-06T21:51:53.024Z,6.80
2018-07-06T21:54:21.856Z,6.72
2018-07-06T21:56:50.701Z,6.62
2018-07-06T21:59:19.548Z,6.47
2018-07-06T22:01:48.405Z,6.93
2018-07-06T22:04:17.259Z,6.82
2018-07-06T22:06:46.102Z,7.50
2018-07-06T22:09:14.935Z,7.10
2018-07-06T22:11:43.782Z,6.93
2018-07-06T22:14:12.622Z,7.60
2018-07-06T22:16:41.462Z,6.78
2018-07-06T22:19:10.301Z,7.40
2018-07-06T22:21:39.903Z,7.12
2018-07-06T22:24:09.493Z,7.35
2018-07-06T22:26:38.353Z,8.68
2018-07-06T22:29:07.195Z,7.60
2018-07-06T22:31:36.066Z,7.28
2018-07-06T22:34:04.906Z,8.80
2018-07-06T22:36:34.495Z,8.88
2018-07-06T22:39:03.329Z,7.97
2018-07-06T22:41:32.219Z,7.60
2018-07-06T22:44:01.807Z,8.52
2018-07-06T22:46:30.659Z,8.35
2018-07-06T22:48:59.505Z,8.32
2018-07-06T22:51:28.361Z,8.50
2018-07-06T22:53:57.201Z,9.40
2018-07-06T22:56:26.040Z,9.25
2018-07-06T22:58:54.899Z,8.52
2018-07-06T23:01:24.482Z,8.55
2018-07-06T23:03:53.309Z,8.90
2018-07-06T23:06:22.964Z,7.85
2018-07-06T23:08:51.739Z,9.95
2018-07-06T23:11:20.583Z,9.07
2018-07-06T23:13:49.427Z,9.77
2018-07-06T23:16:18.277Z,8.13
2018-07-06T23:18:47.122Z,8.38
2018-07-06T23:21:15.959Z,7.30
2018-07-06T23:23:44.785Z,7.78
2018-07-06T23:26:13.625Z,8.50
2018-07-06T23:28:42.457Z,8.18
2018-07-06T23:31:11.304Z,7.85
2018-07-06T23:33:40.139Z,7.75
2018-07-06T23:36:08.985Z,8.57
2018-07-06T23:38:37.842Z,7.93
2018-07-06T23:41:06.682Z,8.30
2018-07-06T23:43:36.271Z,8.57
2018-07-06T23:46:05.114Z,9.63
2018-07-06T23:48:33.961Z,8.40
2018-07-06T23:51:02.812Z,8.90
2018-07-06T23:53:31.658Z,9.65
2018-07-06T23:56:01.242Z,9.25
2018-07-06T23:58:30.074Z,8.35
